Time;durP1;ratioP1;P1;durP2;ratioP2;P2;SDS_P1;SDS_P2;PMS_P1;PMS_P2;Temp;Humidity;BMP_temperature;BMP_pressure;BME280_temperature;BME280_humidity;BME280_pressure;Samples;Min_cycle;Max_cycle;Signal;HPM_P1;HPM_P2
2021/01/26 00:00:55;;;;;;;;;;;;;;;1.35;100.00;98812.28;5076428;28;19925;-80
2021/01/26 00:03:23;;;;;;;;;;;;;;;1.16;100.00;98804.13;5076091;28;20384;-79
2021/01/26 00:05:49;;;;;;;;;;;;;;;1.07;100.00;98811.81;5076400;28;20340;-80
2021/01/26 00:08:16;;;;;;;;;;;;;;;0.97;100.00;98819.91;5058108;28;20379;-80
2021/01/26 00:10:43;;;;;;;;;;;;;;;0.86;100.00;98816.94;5076962;28;20011;-80
2021/01/26 00:13:10;;;;;;;;;;;;;;;0.75;100.00;98813.22;5076752;28;20023;-80
2021/01/26 00:15:37;;;;;;;;;;;;;;;0.66;100.00;98812.66;5076421;28;19925;-80
2021/01/26 00:18:03;;;;;;;;;;;;;;;0.68;100.00;98815.03;5076607;28;19924;-80
2021/01/26 00:20:30;;;;;;;;;;;;;;;0.56;100.00;98807.72;5076213;28;19931;-80
2021/01/26 00:22:57;;;;;;;;;;;;;;;0.63;100.00;98809.81;5076286;28;20371;-80
2021/01/26 00:25:28;;;;;;;;;;;;;;;0.64;100.00;98814.94;5076485;28;19964;-80
2021/01/26 00:27:55;;;;;;;;;;;;;;;0.66;100.00;98817.34;5039772;28;19928;-80
2021/01/26 00:30:24;;;;;;;;;;;;;;;0.62;100.00;98817.25;5039055;28;19925;-80
2021/01/26 00:32:51;;;;;;;;;;;;;;;0.62;100.00;98809.00;5056148;28;20011;-80
2021/01/26 00:35:19;;;;;;;;;;;;;;;0.65;100.00;98816.53;5088139;28;19971;-80
2021/01/26 00:37:46;;;;;;;;;;;;;;;0.69;100.00;98820.16;5056376;28;19931;-80
2021/01/26 00:40:13;;;;;;;;;;;;;;;0.72;100.00;98832.38;5088261;28;19925;-80
2021/01/26 00:42:40;;;;;;;;;;;;;;;0.78;100.00;98826.22;5054732;28;20010;-80
2021/01/26 00:45:07;;;;;;;;;;;;;;;0.78;100.00;98836.41;5055334;28;19928;-81
2021/01/26 00:47:34;;;;;;;;;;;;;;;0.79;100.00;98824.28;5054706;28;20032;-81
2021/01/26 00:50:02;;;;;;;;;;;;;;;0.81;100.00;98824.69;5056417;28;19994;-80
2021/01/26 00:52:30;;;;;;;;;;;;;;;0.81;100.00;98830.19;5087493;28;19932;-80
2021/01/26 00:55:03;;;;;;;;;;;;;;;0.84;100.00;98821.22;5055212;28;20384;-80
2021/01/26 00:57:31;;;;;;;;;;;;;;;0.88;100.00;98830.34;5088493;28;19968;-79
2021/01/26 00:59:57;;;;;;;;;;;;;;;0.86;100.00;98827.97;5054918;28;20303;-80
2021/01/26 01:02:24;;;;;;;;;;;;;;;0.93;100.00;98828.06;5055584;28;19932;-80
2021/01/26 01:04:50;;;;;;;;;;;;;;;0.98;100.00;98826.97;5056259;28;19928;-80
2021/01/26 01:07:18;;;;;;;;;;;;;;;0.97;100.00;98834.44;5071341;28;20063;-80
2021/01/26 01:09:47;;;;;;;;;;;;;;;0.93;100.00;98838.28;5054794;28;20008;-80
2021/01/26 01:12:14;;;;;;;;;;;;;;;0.89;100.00;98832.72;5087485;28;19959;-80
2021/01/26 01:14:40;;;;;;;;;;;;;;;0.95;100.00;98836.78;5087727;28;19931;-80
2021/01/26 01:17:08;;;;;;;;;;;;;;;0.91;100.00;98846.88;5070852;28;20275;-80
2021/01/26 01:19:35;;;;;;;;;;;;;;;0.92;100.00;98845.75;5037612;28;19925;-80
2021/01/26 01:22:01;;;;;;;;;;;;;;;0.91;100.00;98854.38;5055725;28;19936;-80
2021/01/26 01:24:28;;;;;;;;;;;;;;;0.90;100.00;98855.50;5087324;28;19931;-80
2021/01/26 01:26:55;;;;;;;;;;;;;;;0.89;100.00;98860.22;5037436;28;20364;-80
2021/01/26 01:29:21;;;;;;;;;;;;;;;0.85;100.00;98864.09;5054387;28;20360;-80
2021/01/26 01:31:48;;;;;;;;;;;;;;;0.83;100.00;98863.63;5037110;28;19932;-80
2021/01/26 01:34:14;;;;;;;;;;;;;;;0.74;100.00;98863.88;5054146;28;19925;-80
2021/01/26 01:36:41;;;;;;;;;;;;;;;0.85;100.00;98869.59;5055320;28;19979;-80
2021/01/26 01:39:08;;;;;;;;;;;;;;;0.89;100.00;98886.94;5055296;28;19932;-80
2021/01/26 01:41:36;;;;;;;;;;;;;;;0.84;100.00;98882.53;5055349;28;19939;-80
2021/01/26 01:44:04;;;;;;;;;;;;;;;0.81;100.00;98897.00;5054641;28;20340;-80
2021/01/26 01:46:35;;;;;;;;;;;;;;;0.76;100.00;98889.03;5053719;28;19959;-80
2021/01/26 01:49:02;;;;;;;;;;;;;;;0.70;100.00;98890.50;5055079;28;19929;-80
2021/01/26 01:51:30;;;;;;;;;;;;;;;0.65;100.00;98893.53;5055255;28;19925;-80
2021/01/26 01:54:01;;;;;;;;;;;;;;;0.53;100.00;98901.91;5053663;28;19925;-80
2021/01/26 01:56:51;;;;;;;;;;;;;;;0.62;100.00;98909.97;5054696;28;20029;-80
2021/01/26 01:59:23;;;;;;;;;;;;;;;0.51;100.00;98907.00;5053815;28;19994;-80
2021/01/26 02:01:51;;;;;;;;;;;;;;;0.51;100.00;98915.25;5037259;28;19948;-79
2021/01/26 02:04:19;;;;;;;;;;;;;;;0.50;100.00;98913.63;5054904;28;20051;-79
2021/01/26 02:06:58;;;;;;;;;;;;;;;0.53;100.00;98918.41;5072520;28;19916;-80
2021/01/26 02:09:31;;;;;;;;;;;;;;;0.39;100.00;98929.13;5103887;28;20376;-80
2021/01/26 02:11:57;;;;;;;;;;;;;;;0.28;100.00;98930.84;5104570;28;19968;-81
2021/01/26 02:14:25;;;;;;;;;;;;;;;0.33;100.00;98938.00;5070547;28;19924;-81
2021/01/26 02:16:55;;;;;;;;;;;;;;;0.33;100.00;98941.56;5070707;28;19924;-81
2021/01/26 02:19:37;;;;;;;;;;;;;;;0.32;100.00;98939.16;5070835;28;19925;-81
2021/01/26 02:22:10;;;;;;;;;;;;;;;0.29;100.00;98939.88;5070733;28;19968;-81
2021/01/26 02:24:40;;;;;;;;;;;;;;;0.18;100.00;98936.91;5071115;28;20011;-80
2021/01/26 02:27:09;;;;;;;;;;;;;;;0.10;100.00;98937.88;5070530;28;19925;-80
2021/01/26 02:29:54;;;;;;;;;;;;;;;0.15;100.00;98929.38;5053264;28;19932;-81
2021/01/26 02:32:40;;;;;;;;;;;;;;;0.10;100.00;98937.88;5103564;28;19932;-81
2021/01/26 02:35:27;;;;;;;;;;;;;;;0.18;100.00;98945.16;5069934;28;19925;-81
2021/01/26 02:38:03;;;;;;;;;;;;;;;0.15;100.00;98945.06;5071000;28;19924;-81
2021/01/26 02:40:33;;;;;;;;;;;;;;;0.20;100.00;98948.31;5103448;28;20306;-80
2021/01/26 02:42:59;;;;;;;;;;;;;;;0.14;100.00;98944.25;5070872;28;19932;-81
2021/01/26 02:45:41;;;;;;;;;;;;;;;0.12;100.00;98951.25;5069205;28;19928;-81
2021/01/26 02:48:26;;;;;;;;;;;;;;;0.10;100.00;98953.56;5070006;28;19925;-81
2021/01/26 02:51:02;;;;;;;;;;;;;;;0.24;100.00;98960.19;5103153;28;19924;-81
2021/01/26 02:53:35;;;;;;;;;;;;;;;0.36;100.00;98965.56;5070764;28;19929;-81
2021/01/26 02:56:21;;;;;;;;;;;;;;;0.35;100.00;98965.94;5069878;28;20426;-81
2021/01/26 02:58:48;;;;;;;;;;;;;;;0.25;100.00;98966.47;5070631;28;20019;-81
2021/01/26 03:04:06;;;;;;;;;;;;;;;0.38;100.00;98967.97;5038695;28;20368;-80
2021/01/26 03:06:33;;;;;;;;;;;;;;;0.32;100.00;98967.44;5069786;28;19931;-80
2021/01/26 03:09:06;;;;;;;;;;;;;;;0.30;100.00;98980.75;5069493;28;19974;-81
2021/01/26 03:11:44;;;;;;;;;;;;;;;0.27;100.00;98978.72;5070940;28;19925;-81
2021/01/26 03:14:17;;;;;;;;;;;;;;;0.28;100.00;98977.56;5070494;28;19925;-81
2021/01/26 03:16:45;;;;;;;;;;;;;;;0.28;100.00;98974.81;5065434;28;19932;-81
2021/01/26 03:19:23;;;;;;;;;;;;;;;0.29;100.00;98979.13;5057320;28;19925;-81
2021/01/26 03:21:51;;;;;;;;;;;;;;;0.34;100.00;98975.31;5056785;28;20295;-80
2021/01/26 03:24:20;;;;;;;;;;;;;;;0.37;100.00;98969.91;5089696;28;19968;-80
2021/01/26 03:26:47;;;;;;;;;;;;;;;0.59;100.00;98969.22;5056273;28;20410;-80
2021/01/26 03:29:18;;;;;;;;;;;;;;;0.59;100.00;98971.97;5056997;28;20062;-81
2021/01/26 03:31:47;;;;;;;;;;;;;;;0.55;100.00;98962.03;5088865;28;20360;-81
2021/01/26 03:34:13;;;;;;;;;;;;;;;0.49;100.00;98957.97;5055560;28;19925;-81
2021/01/26 03:36:41;;;;;;;;;;;;;;;0.27;100.00;98961.44;5056262;28;19925;-81
2021/01/26 03:39:09;;;;;;;;;;;;;;;0.23;100.00;98966.84;5071975;28;20313;-81
2021/01/26 03:41:36;;;;;;;;;;;;;;;0.21;100.00;98960.91;5055280;28;20380;-81
2021/01/26 03:44:03;;;;;;;;;;;;;;;0.06;100.00;98964.50;5055081;28;19924;-81
2021/01/26 03:46:51;;;;;;;;;;;;;;;-0.02;100.00;98957.22;5056321;28;19980;-81
2021/01/26 03:49:36;;;;;;;;;;;;;;;-0.08;100.00;98958.66;5056648;28;19955;-81
2021/01/26 03:52:21;;;;;;;;;;;;;;;-0.06;100.00;98964.56;5056220;28;19932;-81
2021/01/26 03:54:49;;;;;;;;;;;;;;;-0.10;100.00;98960.94;5055288;28;19929;-81
2021/01/26 03:57:18;;;;;;;;;;;;;;;-0.12;100.00;98963.25;5055032;28;19951;-81
2021/01/26 03:59:51;;;;;;;;;;;;;;;-0.03;100.00;98963.84;5056434;28;19932;-81
2021/01/26 04:02:23;;;;;;;;;;;;;;;-0.08;100.00;98958.66;5055049;28;19928;-81
2021/01/26 04:04:54;;;;;;;;;;;;;;;-0.09;100.00;98962.53;5055654;28;19932;-80
2021/01/26 04:07:27;;;;;;;;;;;;;;;-0.13;100.00;98953.41;5055567;28;19931;-80
2021/01/26 04:09:57;;;;;;;;;;;;;;;0.00;100.00;98965.91;5056479;28;19924;-81
2021/01/26 04:12:26;;;;;;;;;;;;;;;-0.07;100.00;98961.03;5054468;28;19925;-81
2021/01/26 04:15:01;;;;;;;;;;;;;;;-0.22;100.00;98963.78;5087806;28;19932;-81
2021/01/26 04:17:31;;;;;;;;;;;;;;;-0.40;100.00;98965.31;5056120;28;20107;-81
2021/01/26 04:20:01;;;;;;;;;;;;;;;-0.50;100.00;98963.09;5055364;28;19931;-81
2021/01/26 04:22:28;;;;;;;;;;;;;;;-0.50;100.00;98963.09;5055892;28;19929;-81
2021/01/26 04:24:55;;;;;;;;;;;;;;;-0.47;100.00;98965.13;5087752;28;19924;-80
2021/01/26 04:27:23;;;;;;;;;;;;;;;-0.47;100.00;98967.88;5055621;28;19978;-80
2021/01/26 04:29:50;;;;;;;;;;;;;;;-0.45;100.00;98963.63;5070448;28;19925;-80
2021/01/26 04:32:17;;;;;;;;;;;;;;;-0.31;100.00;98974.16;5055698;28;19925;-80
2021/01/26 04:34:44;;;;;;;;;;;;;;;-0.13;100.00;98961.66;5055290;28;19924;-80
2021/01/26 04:37:11;;;;;;;;;;;;;;;-0.15;100.00;98963.94;5055237;28;19924;-80
2021/01/26 04:39:38;;;;;;;;;;;;;;;-0.16;100.00;98978.84;5055347;28;19925;-81
2021/01/26 04:42:08;;;;;;;;;;;;;;;-0.16;100.00;98974.16;5055497;28;19925;-81
2021/01/26 04:44:53;;;;;;;;;;;;;;;-0.31;100.00;98971.41;5054534;28;20380;-81
2021/01/26 04:47:30;;;;;;;;;;;;;;;-0.32;100.00;98975.31;5054353;28;20386;-81
2021/01/26 04:49:57;;;;;;;;;;;;;;;-0.35;100.00;98981.53;5055115;28;19932;-81
2021/01/26 04:52:23;;;;;;;;;;;;;;;-0.30;100.00;98978.50;5054870;28;19925;-81
2021/01/26 04:54:50;;;;;;;;;;;;;;;-0.35;100.00;98982.28;5054761;28;20012;-81
2021/01/26 04:57:36;;;;;;;;;;;;;;;-0.39;100.00;98986.09;5055134;28;20403;-81
2021/01/26 05:00:15;;;;;;;;;;;;;;;-0.40;100.00;98988.06;5051593;28;19959;-81
2021/01/26 05:03:01;;;;;;;;;;;;;;;-0.40;100.00;98987.25;5070340;28;19932;-81
2021/01/26 05:05:29;;;;;;;;;;;;;;;-0.36;100.00;98990.88;5054288;28;20382;-80
2021/01/26 05:08:01;;;;;;;;;;;;;;;-0.39;100.00;98988.84;5054656;28;20323;-81
2021/01/26 05:10:37;;;;;;;;;;;;;;;-0.40;100.00;98996.31;5055143;28;19925;-81
2021/01/26 05:13:04;;;;;;;;;;;;;;;-0.36;100.00;98996.38;5053843;28;19925;-81
2021/01/26 05:15:33;;;;;;;;;;;;;;;-0.26;100.00;99001.34;5037042;28;20023;-81
2021/01/26 05:18:03;;;;;;;;;;;;;;;-0.29;100.00;99007.56;5087059;28;19924;-81
2021/01/26 05:20:34;;;;;;;;;;;;;;;-0.29;100.00;99007.56;5054813;28;19925;-81
2021/01/26 05:23:01;;;;;;;;;;;;;;;-0.37;100.00;99011.25;5054647;28;20368;-81
2021/01/26 05:25:28;;;;;;;;;;;;;;;-0.32;100.00;99011.00;5036837;28;19924;-81
2021/01/26 05:27:55;;;;;;;;;;;;;;;-0.27;100.00;99021.72;5053274;28;20280;-81
2021/01/26 05:30:29;;;;;;;;;;;;;;;-0.25;100.00;99019.41;5069504;28;19932;-81
2021/01/26 05:32:57;;;;;;;;;;;;;;;-0.27;100.00;99027.19;5069906;28;19929;-81
2021/01/26 05:35:24;;;;;;;;;;;;;;;-0.22;100.00;99024.19;5053022;28;20296;-80
2021/01/26 05:37:52;;;;;;;;;;;;;;;-0.22;100.00;99025.00;5086073;28;20023;-81
2021/01/26 05:40:27;;;;;;;;;;;;;;;-0.37;100.00;99017.56;5054296;28;19929;-81
2021/01/26 05:42:56;;;;;;;;;;;;;;;-0.35;100.00;99017.97;5054523;28;20002;-81
2021/01/26 05:45:25;;;;;;;;;;;;;;;-0.24;100.00;99023.75;5069936;28;20289;-81
2021/01/26 05:48:18;;;;;;;;;;;;;;;-0.27;100.00;99016.22;5053838;28;19925;-81
2021/01/26 05:50:45;;;;;;;;;;;;;;;-0.34;100.00;99016.03;5035564;28;19924;-80
2021/01/26 05:53:25;;;;;;;;;;;;;;;-0.27;100.00;99016.22;5054084;28;19939;-80
2021/01/26 05:58:49;;;;;;;;;;;;;;;-0.16;100.00;99020.03;5053820;28;19933;-81
2021/01/26 06:01:21;;;;;;;;;;;;;;;-0.09;100.00;99022.94;5052777;28;20387;-81
2021/01/26 06:04:04;;;;;;;;;;;;;;;-0.12;100.00;99013.47;5053655;28;19925;-81
2021/01/26 06:06:31;;;;;;;;;;;;;;;-0.06;100.00;99011.25;5053512;28;19925;-81
2021/01/26 06:08:58;;;;;;;;;;;;;;;-0.02;100.00;99006.66;5053744;28;19970;-81
2021/01/26 06:11:28;;;;;;;;;;;;;;;-0.03;100.00;99016.03;5054081;28;20411;-81
2021/01/26 06:14:14;;;;;;;;;;;;;;;0.00;100.00;99012.63;5052629;28;19925;-81
2021/01/26 06:16:42;;;;;;;;;;;;;;;0.00;100.00;99009.88;5053590;28;19968;-81
2021/01/26 06:19:13;;;;;;;;;;;;;;;-0.01;100.00;99003.56;5054089;28;19925;-81
2021/01/26 06:21:50;;;;;;;;;;;;;;;-0.11;100.00;99003.31;5052638;28;19925;-80
2021/01/26 06:24:18;;;;;;;;;;;;;;;-0.01;100.00;99003.56;5052652;28;19925;-80
2021/01/26 06:27:04;;;;;;;;;;;;;;;0.00;100.00;99004.38;5054049;28;20265;-81
2021/01/26 06:29:39;;;;;;;;;;;;;;;-0.01;100.00;99013.75;5085859;28;20395;-81
2021/01/26 06:32:10;;;;;;;;;;;;;;;0.02;100.00;99023.25;5053960;28;19928;-81
2021/01/26 06:34:53;;;;;;;;;;;;;;;0.01;100.00;99027.94;5052339;28;20015;-81
2021/01/26 06:37:28;;;;;;;;;;;;;;;0.23;100.00;99029.25;5052144;28;20285;-81
2021/01/26 06:40:13;;;;;;;;;;;;;;;0.36;100.00;99017.81;5053556;28;19925;-80
2021/01/26 06:43:02;;;;;;;;;;;;;;;0.27;100.00;99019.13;5086443;28;20315;-81
2021/01/26 06:45:37;;;;;;;;;;;;;;;0.01;100.00;99008.72;5052224;28;20061;-81
2021/01/26 06:48:04;;;;;;;;;;;;;;;0.06;100.00;99004.91;5052605;28;19964;-80
2021/01/26 06:50:30;;;;;;;;;;;;;;;0.25;100.00;99005.75;5052062;28;19925;-81
2021/01/26 06:53:00;;;;;;;;;;;;;;;0.25;100.00;99008.50;5056275;28;20016;-81
2021/01/26 06:55:26;;;;;;;;;;;;;;;0.09;100.00;99001.44;5057511;28;19925;-80
2021/01/26 06:58:18;;;;;;;;;;;;;;;0.10;100.00;99012.06;5057296;28;20376;-80
2021/01/26 07:01:01;;;;;;;;;;;;;;;0.13;100.00;99011.34;5056023;28;19948;-80
2021/01/26 07:03:40;;;;;;;;;;;;;;;0.13;100.00;99008.59;5056713;28;19925;-81
2021/01/26 07:06:34;;;;;;;;;;;;;;;0.15;100.00;99017.31;5089191;28;19982;-79
2021/01/26 07:09:11;;;;;;;;;;;;;;;0.01;100.00;99011.44;5072724;28;19925;-80
2021/01/26 07:11:44;;;;;;;;;;;;;;;0.01;100.00;99000.47;5055811;28;20426;-80
2021/01/26 07:14:30;;;;;;;;;;;;;;;0.05;100.00;98987.59;5089269;28;20403;-80
2021/01/26 07:17:06;;;;;;;;;;;;;;;0.16;100.00;98991.41;5057396;28;20430;-81
2021/01/26 07:19:42;;;;;;;;;;;;;;;0.26;100.00;98990.06;5088774;28;20330;-79
2021/01/26 07:22:08;;;;;;;;;;;;;;;0.25;100.00;98994.75;5056840;28;20129;-78
2021/01/26 07:24:54;;;;;;;;;;;;;;;0.30;100.00;98991.75;5056634;28;19979;-78
2021/01/26 07:27:36;;;;;;;;;;;;;;;0.30;100.00;98996.44;5056517;28;19944;-79
2021/01/26 07:30:21;;;;;;;;;;;;;;;0.23;100.00;99007.28;5056551;28;19932;-79
2021/01/26 07:32:47;;;;;;;;;;;;;;;0.20;100.00;99008.75;5056707;28;20023;-79
2021/01/26 07:35:14;;;;;;;;;;;;;;;0.18;100.00;99005.59;5056323;28;19925;-79
2021/01/26 07:37:40;;;;;;;;;;;;;;;0.13;100.00;99014.09;5055293;28;19925;-79
2021/01/26 07:40:15;;;;;;;;;;;;;;;0.16;100.00;99007.91;5056405;28;20265;-78
2021/01/26 07:42:47;;;;;;;;;;;;;;;0.15;100.00;99011.00;5057238;28;20004;-79
2021/01/26 07:45:18;;;;;;;;;;;;;;;0.26;100.00;98996.34;5056573;28;19929;-78
2021/01/26 07:47:52;;;;;;;;;;;;;;;0.24;100.00;98998.66;5054911;28;19925;-78
2021/01/26 07:50:30;;;;;;;;;;;;;;;0.27;100.00;98992.47;5056282;28;19924;-79
2021/01/26 07:53:13;;;;;;;;;;;;;;;0.23;100.00;99005.31;5056198;28;19925;-79
2021/01/26 07:56:06;;;;;;;;;;;;;;;0.00;100.00;99007.13;5059793;28;19976;-78
2021/01/26 07:58:34;;;;;;;;;;;;;;;-0.04;100.00;99014.47;5062700;28;19985;-78
2021/01/26 08:01:01;;;;;;;;;;;;;;;-0.09;100.00;99020.22;5054742;28;20014;-79
2021/01/26 08:03:29;;;;;;;;;;;;;;;-0.12;100.00;99018.16;5055588;28;19925;-78
2021/01/26 08:05:57;;;;;;;;;;;;;;;-0.13;100.00;99024.81;5055499;28;19932;-79
2021/01/26 08:08:26;;;;;;;;;;;;;;;0.12;100.00;99029.00;5055852;28;19931;-78
2021/01/26 08:11:12;;;;;;;;;;;;;;;0.07;100.00;99037.50;5054515;28;19925;-78
2021/01/26 08:13:45;;;;;;;;;;;;;;;0.01;100.00;99038.91;5055829;28;19924;-79
2021/01/26 08:16:14;;;;;;;;;;;;;;;-0.05;100.00;99041.13;5055723;28;20008;-79
2021/01/26 08:18:42;;;;;;;;;;;;;;;-0.12;100.00;99032.72;5055539;28;19925;-78
2021/01/26 08:21:26;;;;;;;;;;;;;;;-0.06;100.00;99044.22;5054611;28;20437;-79
2021/01/26 08:24:06;;;;;;;;;;;;;;;0.07;100.00;99043.00;5055673;28;20330;-78
2021/01/26 08:26:33;;;;;;;;;;;;;;;0.17;100.00;99047.16;5055420;28;19928;-79
2021/01/26 08:29:00;;;;;;;;;;;;;;;0.11;100.00;99045.84;5055796;28;19955;-78
2021/01/26 08:31:38;;;;;;;;;;;;;;;0.08;100.00;99043.81;5055186;28;19932;-79
2021/01/26 08:34:20;;;;;;;;;;;;;;;0.03;100.00;99025.63;5037585;28;19925;-85
2021/01/26 08:37:08;;;;;;;;;;;;;;;0.05;100.00;99004.09;5055389;28;20299;-78
2021/01/26 08:39:37;;;;;;;;;;;;;;;0.08;100.00;99014.38;5054032;28;20372;-80
2021/01/26 08:42:06;;;;;;;;;;;;;;;0.12;100.00;99018.00;5055462;28;19978;-81
2021/01/26 08:44:35;;;;;;;;;;;;;;;0.15;100.00;99020.03;5054041;28;19932;-81
2021/01/26 08:47:21;;;;;;;;;;;;;;;0.18;100.00;99018.53;5037598;28;19932;-81
2021/01/26 08:49:47;;;;;;;;;;;;;;;0.22;100.00;99006.47;5054533;28;19925;-81
2021/01/26 08:52:34;;;;;;;;;;;;;;;0.25;100.00;99016.75;5054505;28;19925;-81
2021/01/26 08:55:01;;;;;;;;;;;;;;;0.37;100.00;99016.63;5054075;28;20012;-81
2021/01/26 08:57:28;;;;;;;;;;;;;;;0.37;100.00;99137.56;5053952;28;19925;-81
2021/01/26 09:00:15;;;;;;;;;;;;;;;0.34;100.00;99134.72;5053951;28;19925;-82
2021/01/26 09:02:43;;;;;;;;;;;;;;;0.44;100.00;99136.97;5054779;28;20307;-82
2021/01/26 09:05:10;;;;;;;;;;;;;;;0.54;100.00;99139.97;5057767;28;19929;-80
2021/01/26 09:07:53;;;;;;;;;;;;;;;0.67;100.00;99141.47;5054970;28;20002;-82
2021/01/26 09:10:25;;;;;;;;;;;;;;;0.90;100.00;99150.66;5076902;28;19929;-78
2021/01/26 09:12:58;;;;;;;;;;;;;;;0.88;100.00;99152.19;5049659;28;19978;-77
2021/01/26 09:15:25;;;;;;;;;;;;;;;0.89;100.00;99151.84;5049756;28;19928;-77
2021/01/26 09:17:55;;;;;;;;;;;;;;;1.14;100.00;99164.19;5049241;28;20003;-77
2021/01/26 09:20:23;;;;;;;;;;;;;;;1.16;100.00;99145.38;5048694;28;19931;-76
2021/01/26 09:22:49;;;;;;;;;;;;;;;0.98;100.00;99127.66;5049168;28;19924;-77
2021/01/26 09:25:19;;;;;;;;;;;;;;;0.80;100.00;99123.72;5050601;28;19925;-79
2021/01/26 09:28:01;;;;;;;;;;;;;;;0.92;100.00;99118.09;5047033;28;19944;-77
2021/01/26 09:30:28;;;;;;;;;;;;;;;0.98;100.00;99121.38;5049947;28;19932;-76
2021/01/26 09:33:00;;;;;;;;;;;;;;;1.22;100.00;99127.41;5049788;28;19925;-76
2021/01/26 09:35:27;;;;;;;;;;;;;;;1.37;100.00;99123.00;5052182;28;19925;-76
2021/01/26 09:38:00;;;;;;;;;;;;;;;1.50;100.00;99116.22;5015907;28;20395;-76
2021/01/26 09:40:27;;;;;;;;;;;;;;;1.51;100.00;99115.84;5048977;28;19932;-74
2021/01/26 09:43:04;;;;;;;;;;;;;;;1.66;100.00;99108.66;5049933;28;19932;-76
2021/01/26 09:45:31;;;;;;;;;;;;;;;1.64;100.00;99105.47;5081705;28;19932;-76
2021/01/26 09:47:57;;;;;;;;;;;;;;;1.70;100.00;99132.34;5050361;28;19956;-76
2021/01/26 09:50:28;;;;;;;;;;;;;;;1.74;100.00;99124.19;5031919;28;19947;-76
2021/01/26 09:52:57;;;;;;;;;;;;;;;1.72;100.00;99134.75;5048439;28;20280;-76
2021/01/26 09:55:25;;;;;;;;;;;;;;;1.92;100.00;99138.28;5050683;28;20333;-76
2021/01/26 09:57:54;;;;;;;;;;;;;;;2.22;100.00;99119.94;5081974;28;20556;-76
2021/01/26 10:00:22;;;;;;;;;;;;;;;2.37;100.00;99105.22;5049233;28;20418;-77
2021/01/26 10:02:54;;;;;;;;;;;;;;;2.47;100.00;99097.13;5049884;28;20410;-76
2021/01/26 10:05:23;;;;;;;;;;;;;;;2.58;100.00;99089.03;5048767;28;20364;-76
2021/01/26 10:08:05;;;;;;;;;;;;;;;2.55;100.00;99073.22;5049262;28;19936;-72
2021/01/26 10:10:31;;;;;;;;;;;;;;;2.64;100.00;99065.47;5047954;28;20383;-81
2021/01/26 10:13:18;;;;;;;;;;;;;;;2.68;100.00;99056.09;5048534;28;19925;-78
2021/01/26 10:15:45;;;;;;;;;;;;;;;2.78;100.00;99052.72;5049780;28;20019;-79
2021/01/26 10:18:14;;;;;;;;;;;;;;;2.82;100.00;99044.47;5049287;28;19951;-78
2021/01/26 10:20:44;;;;;;;;;;;;;;;2.89;100.00;99039.06;5048302;28;19925;-77
2021/01/26 10:23:20;;;;;;;;;;;;;;;2.85;100.00;99039.00;5049611;28;20035;-74
2021/01/26 10:25:47;;;;;;;;;;;;;;;2.80;100.00;99031.03;5047609;28;19967;-76
2021/01/26 10:28:19;;;;;;;;;;;;;;;2.86;100.00;99034.28;5051138;28;19990;-74
2021/01/26 10:30:48;;;;;;;;;;;;;;;3.09;100.00;99021.19;5050927;28;20380;-74
2021/01/26 10:33:33;;;;;;;;;;;;;;;2.96;100.00;99011.53;5050288;28;19936;-73
2021/01/26 10:36:18;;;;;;;;;;;;;;;3.12;100.00;99017.69;5052366;28;19925;-74
2021/01/26 10:38:45;;;;;;;;;;;;;;;3.20;100.00;99006.34;5034274;28;20308;-74
2021/01/26 10:41:19;;;;;;;;;;;;;;;3.21;100.00;99001.63;5053376;28;19928;-72
2021/01/26 10:43:47;;;;;;;;;;;;;;;3.31;100.00;99015.56;5033256;28;19972;-72
2021/01/26 10:46:27;;;;;;;;;;;;;;;3.31;100.00;99023.03;5042689;28;20356;-73
2021/01/26 10:48:54;;;;;;;;;;;;;;;3.44;100.00;99010.56;5051611;28;19925;-72
2021/01/26 10:51:30;;;;;;;;;;;;;;;3.40;100.00;99001.44;5052943;28;20304;-72
2021/01/26 10:53:59;;;;;;;;;;;;;;;3.47;100.00;98998.75;5051898;28;19924;-75
2021/01/26 10:56:25;;;;;;;;;;;;;;;3.44;100.00;98993.97;5084011;28;19975;-71
2021/01/26 10:58:52;;;;;;;;;;;;;;;3.46;100.00;98986.13;5034578;28;19966;-73
2021/01/26 11:01:20;;;;;;;;;;;;;;;3.51;100.00;98978.28;5048873;28;19932;-73
2021/01/26 11:03:50;;;;;;;;;;;;;;;3.53;100.00;98958.56;5052708;28;20331;-74
2021/01/26 11:06:18;;;;;;;;;;;;;;;3.32;100.00;98958.34;5067679;28;19929;-73
2021/01/26 11:08:47;;;;;;;;;;;;;;;3.43;100.00;98975.84;5053052;28;19931;-74
2021/01/26 11:11:18;;;;;;;;;;;;;;;3.59;100.00;98984.66;5052754;28;19995;-73
2021/01/26 11:13:46;;;;;;;;;;;;;;;3.69;100.00;99001.38;5051366;28;20013;-73
2021/01/26 11:16:13;;;;;;;;;;;;;;;3.70;100.00;98997.44;5034045;28;20009;-73
2021/01/26 11:18:41;;;;;;;;;;;;;;;3.76;100.00;98995.13;5047972;28;19925;-73
2021/01/26 11:21:07;;;;;;;;;;;;;;;3.70;100.00;98986.38;5051749;28;19925;-73
2021/01/26 11:23:34;;;;;;;;;;;;;;;3.82;100.00;98988.06;5048700;28;19929;-73
2021/01/26 11:26:01;;;;;;;;;;;;;;;3.74;100.00;98983.66;5051611;28;19928;-73
2021/01/26 11:28:28;;;;;;;;;;;;;;;3.92;100.00;98984.63;5048577;28;19932;-74
2021/01/26 11:30:54;;;;;;;;;;;;;;;3.72;100.00;98963.91;5051786;28;19932;-73
2021/01/26 11:33:21;;;;;;;;;;;;;;;3.84;100.00;98958.09;5049063;28;20368;-74
2021/01/26 11:35:47;;;;;;;;;;;;;;;3.82;100.00;98943.06;5051871;28;19925;-74
2021/01/26 11:38:14;;;;;;;;;;;;;;;3.87;100.00;98948.22;5049807;28;19925;-74
2021/01/26 11:40:41;;;;;;;;;;;;;;;4.06;100.00;98940.47;5051849;28;19932;-75
2021/01/26 11:43:08;;;;;;;;;;;;;;;4.15;100.00;98935.41;5083499;28;19955;-74
2021/01/26 11:45:37;;;;;;;;;;;;;;;4.06;100.00;98921.13;5051554;28;19925;-74
2021/01/26 11:48:06;;;;;;;;;;;;;;;4.14;100.00;98916.44;5050975;28;19964;-74
2021/01/26 11:50:34;;;;;;;;;;;;;;;4.13;100.00;98907.38;5051526;28;20392;-78
2021/01/26 11:53:04;;;;;;;;;;;;;;;4.04;100.00;98901.38;5052187;28;20031;-72
2021/01/26 11:55:32;;;;;;;;;;;;;;;4.00;100.00;98838.97;5034347;28;19925;-73
2021/01/26 11:57:59;;;;;;;;;;;;;;;3.59;100.00;98835.47;5051124;28;19931;-73
2021/01/26 12:00:28;;;;;;;;;;;;;;;3.74;100.00;98837.97;5017678;28;19974;-73
2021/01/26 12:02:57;;;;;;;;;;;;;;;3.81;100.00;98828.16;5051627;28;19929;-75
2021/01/26 12:05:26;;;;;;;;;;;;;;;3.67;100.00;98820.56;5048906;28;20008;-75
2021/01/26 12:07:53;;;;;;;;;;;;;;;3.81;100.00;98812.38;5050919;28;20360;-74
2021/01/26 12:10:20;;;;;;;;;;;;;;;3.96;100.00;98804.94;5051400;28;20398;-77
2021/01/26 12:12:47;;;;;;;;;;;;;;;3.89;100.00;98799.38;5049957;28;19925;-77
2021/01/26 12:15:17;;;;;;;;;;;;;;;3.78;100.00;98801.28;5050878;28;19928;-76
2021/01/26 12:17:43;;;;;;;;;;;;;;;3.49;100.00;98800.28;5051454;28;19925;-73
2021/01/26 12:20:10;;;;;;;;;;;;;;;3.47;100.00;98786.06;5049488;28;19935;-75
2021/01/26 12:22:37;;;;;;;;;;;;;;;3.55;100.00;98793.22;5050998;28;19931;-77
2021/01/26 12:25:04;;;;;;;;;;;;;;;3.21;100.00;98795.31;5052056;28;19925;-78
2021/01/26 12:27:31;;;;;;;;;;;;;;;3.45;100.00;98802.25;5049077;28;20035;-78
2021/01/26 12:29:58;;;;;;;;;;;;;;;3.36;100.00;98794.25;5050217;28;19924;-80
2021/01/26 12:32:24;;;;;;;;;;;;;;;3.43;100.00;98793.53;5052896;28;19925;-84
2021/01/26 12:34:51;;;;;;;;;;;;;;;3.54;100.00;98794.41;5033535;28;19951;-76
2021/01/26 12:37:19;;;;;;;;;;;;;;;3.57;100.00;98783.38;5050659;28;19964;-74
2021/01/26 12:39:46;;;;;;;;;;;;;;;3.70;100.00;98786.63;5051384;28;19936;-75
2021/01/26 12:42:12;;;;;;;;;;;;;;;3.68;100.00;98783.47;5050562;28;19925;-77
2021/01/26 12:44:39;;;;;;;;;;;;;;;3.73;100.00;98774.81;5050982;28;19924;-78
2021/01/26 12:47:06;;;;;;;;;;;;;;;3.59;100.00;98785.75;5050778;28;19925;-81
2021/01/26 12:49:33;;;;;;;;;;;;;;;3.47;100.00;98769.50;5049715;28;19925;-80
2021/01/26 12:51:59;;;;;;;;;;;;;;;3.51;100.00;98765.56;5042459;28;19928;-80
2021/01/26 12:54:26;;;;;;;;;;;;;;;3.19;100.00;98761.00;5045201;28;19932;-79
2021/01/26 12:56:53;;;;;;;;;;;;;;;3.29;100.00;98757.50;5050699;28;19925;-79
2021/01/26 12:59:19;;;;;;;;;;;;;;;3.36;100.00;98765.88;5051421;28;19940;-80
2021/01/26 13:01:46;;;;;;;;;;;;;;;3.33;100.00;98756.38;5049639;28;19933;-80
2021/01/26 13:04:13;;;;;;;;;;;;;;;3.15;100.00;98763.72;5051334;28;19925;-80
2021/01/26 13:06:39;;;;;;;;;;;;;;;3.15;100.00;98760.19;5050025;28;19974;-79
2021/01/26 13:09:09;;;;;;;;;;;;;;;3.06;100.00;98763.25;5049273;28;19944;-80
2021/01/26 13:11:37;;;;;;;;;;;;;;;2.96;100.00;98757.63;5050605;28;19931;-80